Main page
METAR-TAF:

METAR-TAF

Airports :

Chișinău International Airport

Chisinau, Moldova

latitude: 46-55-40N, longitude: 028-55-51E, elevation: 122 m

Current weather observation

The report was made 19 minutes ago, at 21:30 UTC
Wind 8 kt from the South
Temperature 12°C
Humidity 94%
Pressure 1004 hPa
Visibility 10 km or more
no clouds below 1500 m and no cumulonimbus

METAR: LUKK 242130Z 17008KT CAVOK 12/11 Q1004 NOSIG

Time: 00:49 (21:49 UTC)

Forecast

The report was made 4 hours and 36 minutes ago, at 17:13 UTC
Forecast valid from 24 at 18 UTC to 25 at 18 UTC
Wind 5 kt from variable directions
Visibility 10 km or more
no clouds below 1500 m and no cumulonimbus
Becoming
from 24 at 21 UTC to 24 at 24 UTC
Visibility: 3000 m
mist
Temporary
from 25 at 00 UTC to 25 at 06 UTC
Visibility: 0400 m
fog
Temporary
from 25 at 11 UTC to 25 at 18 UTC
Scattered clouds at a height of 3500 ft, Cumulonimbus.

TAF: LUKK 241713Z 2418/2518 VRB05KT CAVOK BECMG 2421/2424 3000 BR TEMPO 2500/2506 0400 FG VV/// TEMPO 2511/2518 SCT035CB

Weather observations and forecasts of more than 4000 airports (METAR and TAF reports).

The available stations are represented by yellow and red dots on the map.

Hover mouse over dot to see the name of the station.

Then click to see weather observations and forecasts.

To change the map : click on the green buttons with a black cross to zoom in, on the green button with a dash to zoom out, or on the green arrows for adjacent maps.


METAR-TAF: